Tiempo atmosférico en la estación meteorológica de Agüimes, Las Palmas (306 m.)



Fecha
DESCASC
Temp. máxima en grados centígrados (hora)
DESCASC
Temp. mínima en grados centígrados (hora)
DESCASC
Temp. media en grados centígrados
DESCASC
Racha de viento máxima en m/sg (hora)
DESCASC
Velocidad máxima media en intervalos de 10 minutos(hora)
DESCASC
Precipitaciones diarias en mm
DESCASC
Precipitaciones de 00:00 a 06:00 en mm
DESCASC
Precipitaciones de 06:00 a 12:00 en mm
DESCASC
Precipitaciones de 12:00 a 18:00 en mm
DESCASC
Precipitaciones de 18:00 a 24:00 en mm
DESCASC
13-01-2021 17.2 (14:20) 12.8 (03:00) 15 13.33 (13:00) 8.33 (14:30) 1.4 1 0.4 0 0
12-01-2021 16.5 (11:50) 11.1 (08:00) 13.8 11.11 (18:00) 7.5 (18:00) 4.4 0 2.4 1.6 0.4
11-01-2021 16.4 (12:30) 11.4 (06:30) 13.9 11.67 (11:30) 8.06 (01:30) 4.4 1.4 0 0.4 2.6
10-01-2021 18.6 (15:00) 11.4 (03:20) 15 12.22 (15:20) 7.5 (23:20) 0.8 0.4 0.2 0 0.2
09-01-2021 16.3 (13:00) 11.7 (00:00) 14 12.78 (15:10) 8.33 (15:10) 1 0 0 0.6 0.4
08-01-2021 20.6 (12:00) 13.3 (00:00) 17 20.28 (01:10) 13.06 (00:10) 4.2 0.6 0 3.4 0.2
07-01-2021 21.2 (14:30) 17.8 (00:00) 19.5 28.33 (11:50) 15.83 (11:30) 24.4 0.6 6.2 11.6 6
06-01-2021 21.4 (16:50) 17.4 (00:00) 19.4 28.33 (08:40) 16.11 (08:40) 6.6 0 5.6 1 0
05-01-2021 24.8 (14:40) 15.3 (00:00) 20 8.89 (23:50) 5.83 (23:50) 0 0 0 0 0
04-01-2021 17.4 (13:40) 13.9 (00:00) 15.6 13.89 (15:50) 9.44 (16:40) 0 0 0 0 0
03-01-2021 16.8 (12:30) 13.7 (00:00) 15.2 6.39 (00:50) 3.89 (00:50) 0 0 0 0 0
02-01-2021 18.3 (12:40) 13.3 (00:00) 15.8 11.11 (00:50) 7.5 (00:50) 0 0 0 0 0
01-01-2021 18.4 (14:20) 14.2 (00:00) 16.3 11.67 (17:30) 7.5 (17:20) 0 0 0 0 0
31-12-2020 19.4 (13:30) 13 (00:00) 16.2 12.5 (16:30) 8.61 (16:20) 0.2 0.2 0 0 0
30-12-2020 20.9 (12:10) 13.4 (00:00) 17.1 8.61 (10:20) 6.11 (09:40) 1 0 0 0.6 0.4
29-12-2020 20.1 (13:40) 14.2 (00:00) 17.2 10.28 (15:00) 7.5 (15:00) 0 0 0 0 0
28-12-2020 24 (13:40) 15.2 (00:00) 19.6 7.78 (21:10) 5.28 (21:10) 0 0 0 0 0
27-12-2020 22.5 (12:00) 13.9 (00:00) 18.2 5.83 (14:10) 3.33 (14:20) 0 0 0 0 0
26-12-2020 22 (12:50) 14 (00:00) 18 8.61 (14:40) 5.83 (13:00) 0 0 0 0 0
25-12-2020 22.1 (14:00) 14.8 (00:00) 18.5 9.17 (15:10) 6.39 (16:20) 0 0 0 0 0
24-12-2020 20.1 (14:30) 15 (00:00) 17.6 9.44 (02:30) 5 (12:50) 0 0 0 0 0
23-12-2020 20.8 (14:10) 15.1 (00:00) 17.9 8.89 (13:10) 5.83 (13:20) 0 0 0 0 0
22-12-2020 21.2 (14:40) 13.9 (00:00) 17.6 6.39 (00:10) 4.72 (01:50) 0 0 0 0 0
21-12-2020 20.7 (13:50) 14.7 (00:00) 17.7 11.11 (05:10) 7.22 (05:10) 1.6 1.6 0 0 0
20-12-2020 20.9 (14:20) 14.8 (00:00) 17.8 11.11 (10:20) 7.22 (03:20) 0 0 0 0 0
19-12-2020 20.1 (13:20) 15 (00:00) 17.6 12.5 (13:50) 8.33 (13:50) 0 0 0 0 0
18-12-2020 19.9 (13:10) 14.2 (00:00) 17 13.61 (12:50) 8.89 (12:30) 0 0 0 0 0

Gráficas

Temp. máximas Temp. mínimas Temp. medias Precipitaciones Rachas de viento máximas Velocidades máximas media en intervalos de 10 minutos

Datos horarios

Fecha y hora oficial Temperatura (ºC) Velocidad del viento (km/h) Dirección del viento Racha (km/h) Dirección de racha Precipitación (mm) Presión (hPa) Tendencia (hPa) Humedad (%)
2021-01-16 23:00:00 14.3 22 Norte 34 Norte 0 -- -- 69
2021-01-16 22:00:00 14.7 21 Norte 35 Norte 0 -- -- 70
2021-01-16 21:00:00 14.3 22 Norte 37 Nordeste 0 -- -- 71
2021-01-16 20:00:00 15 24 Norte 38 Norte 0 -- -- 77
2021-01-16 19:00:00 15.2 21 Norte 37 Norte 0 -- -- 81
2021-01-16 18:00:00 16 21 Norte 35 Nordeste 0 -- -- 73
2021-01-16 17:00:00 17.4 23 Nordeste 39 Nordeste 0 -- -- 66
2021-01-16 16:00:00 17.6 28 Nordeste 41 Nordeste 0 -- -- 63
2021-01-16 15:00:00 17.4 26 Nordeste 44 Nordeste 0 -- -- 65
2021-01-16 14:00:00 18.9 24 Nordeste 46 Nordeste 0 -- -- 59
2021-01-16 13:00:00 18.4 27 Nordeste 51 Nordeste 0 -- -- 54
2021-01-16 12:00:00 16.8 28 Norte 47 Norte 0 -- -- 64
2021-01-16 11:00:00 17.3 27 Nordeste 50 Nordeste 0 -- -- 58
2021-01-16 10:00:00 15.4 30 Norte 49 Norte 0 -- -- 64
2021-01-16 09:00:00 14.5 27 Norte 43 Norte 0 -- -- 64
2021-01-16 08:00:00 13.9 28 Norte 44 Nordeste 0 -- -- 67
2021-01-16 07:00:00 14 27 Norte 45 Norte 0 -- -- 70
2021-01-16 06:00:00 13.4 28 Norte 45 Norte 0 -- -- 70
2021-01-16 05:00:00 13.3 29 Norte 42 Norte 0 -- -- 69
2021-01-16 04:00:00 13.1 26 Norte 42 Norte 0 -- -- 68
2021-01-16 03:00:00 13.5 25 Norte 46 Norte 0 -- -- 71
2021-01-16 02:00:00 14.1 24 Norte 42 Noroeste 0 -- -- 64
2021-01-16 01:00:00 13.8 31 Norte 45 Norte 0 -- -- 65
2021-01-16 00:00:00 13.8 26 Norte 45 Norte 0 -- -- 65
2021-01-15 23:00:00 14 25 Norte 46 Norte 0 -- -- 68
2021-01-15 22:00:00 14.3 27 Norte 53 Norte 0 -- -- 70
2021-01-15 21:00:00 14 26 Norte 50 Norte 0 -- -- 64
2021-01-15 20:00:00 13.8 24 Norte 52 Norte 0 -- -- 65
2021-01-15 19:00:00 14.2 32 Norte 53 Norte 0 -- -- 69
2021-01-15 18:00:00 14.9 31 Norte 49 Norte 0 -- -- 72
2021-01-15 17:00:00 16.2 27 Norte 46 Norte 0 -- -- 58
2021-01-15 16:00:00 16.2 26 Norte 46 Norte 0 -- -- 64
2021-01-15 15:00:00 16.4 27 Norte 47 Nordeste 0 -- -- 68
2021-01-15 14:00:00 17.4 29 Norte 45 Nordeste 0 -- -- 56
2021-01-15 13:00:00 15.4 23 Nordeste 38 Nordeste 0 -- -- 65
2021-01-15 12:00:00 15.3 22 Norte 36 Norte 0 -- -- 65
2021-01-15 11:00:00 14.4 21 Norte 38 Norte 0 -- -- 68
2021-01-15 10:00:00 14.2 21 Norte 37 Norte 0 -- -- 65
2021-01-15 09:00:00 13.9 28 Norte 41 Norte 0 -- -- 68
2021-01-15 08:00:00 13.5 26 Norte 46 Nordeste 0 -- -- 67
2021-01-15 07:00:00 13.7 27 Norte 42 Norte 0 -- -- 70
2021-01-15 06:00:00 14 26 Norte 42 Norte 0 -- -- 65
2021-01-15 05:00:00 13.6 26 Norte 45 Norte 0 -- -- 63
2021-01-15 04:00:00 13.7 24 Norte 40 Norte 0 -- -- 67
2021-01-15 03:00:00 13.5 24 Norte 41 Norte 0 -- -- 67
2021-01-15 02:00:00 13.7 25 Norte 40 Norte 0 -- -- 73
2021-01-15 01:00:00 13.8 22 Norte 41 Nordeste 0 -- -- 73
2021-01-15 00:00:00 13.6 22 Norte 38 Norte 0 -- -- 75
2021-01-14 23:00:00 13.5 25 Norte 41 Norte 0 -- -- 66
2021-01-14 22:00:00 13.4 20 Norte 32 Nordeste 0 -- -- 66
2021-01-14 21:00:00 14 18 Nordeste 36 Nordeste 0 -- -- 66
2021-01-14 20:00:00 14.2 20 Nordeste 31 Nordeste 0 -- -- 73
2021-01-14 19:00:00 14.2 16 Nordeste 31 Nordeste 0 -- -- 72
2021-01-14 18:00:00 14.5 16 Nordeste 31 Nordeste 0 -- -- 71
2021-01-14 17:00:00 14.8 18 Nordeste 29 Nordeste 0 -- -- 70
2021-01-14 16:00:00 15 16 Nordeste 33 Nordeste 0 -- -- 69
2021-01-14 15:00:00 14.8 15 Nordeste 28 Nordeste 0 -- -- 71
2021-01-14 14:00:00 14.8 18 Nordeste 29 Nordeste 0 -- -- 70
2021-01-14 13:00:00 15.1 17 Nordeste 32 Nordeste 0 -- -- 67
2021-01-14 12:00:00 15.4 18 Nordeste 30 Nordeste 0 -- -- 70
2021-01-14 11:00:00 15.2 19 Nordeste 32 Nordeste 0 -- -- 70
2021-01-14 10:00:00 15.4 18 Nordeste 29 Nordeste 0 -- -- 68
2021-01-14 09:00:00 14.8 13 Nordeste 21 Norte 0 -- -- 75
2021-01-14 08:00:00 13.2 12 Norte 19 Norte 0 -- -- 78
2021-01-14 07:00:00 13.2 15 Norte 22 Norte 0 -- -- 76
2021-01-14 06:00:00 13.2 15 Norte 22 Norte 0 -- -- 76
2021-01-14 05:00:00 13.2 16 Norte 22 Norte 0 -- -- 78
2021-01-14 04:00:00 13.4 14 Norte 21 Norte 0 -- -- 78
2021-01-14 03:00:00 13.3 16 Norte 25 Norte 0 -- -- 79
2021-01-14 02:00:00 13.6 17 Norte 25 Norte 0 -- -- 80
2021-01-14 01:00:00 13.9 18 Norte 29 Norte 0 -- -- 80
2021-01-14 00:00:00 14 22 Norte 33 Norte 0 -- -- 78
2021-01-13 23:00:00 13.8 19 Norte 29 Norte 0 -- -- 77
2021-01-13 22:00:00 13.9 16 Norte 27 Norte 0 -- -- 77
2021-01-13 21:00:00 14.1 19 Norte 27 Norte 0 -- -- 73
2021-01-13 20:00:00 14 18 Norte 30 Norte 0 -- -- 71
2021-01-13 19:00:00 13.9 18 Norte 31 Nordeste 0 -- -- 73
2021-01-13 18:00:00 14.7 21 Norte 38 Norte 0 -- -- 70
2021-01-13 17:00:00 16 22 Norte 35 Nordeste 0 -- -- 65
2021-01-13 16:00:00 16.8 21 Norte 46 Nordeste 0 -- -- 62
2021-01-13 15:00:00 17 23 Norte 44 Nordeste 0 -- -- 60
2021-01-13 14:00:00 17.1 27 Nordeste 41 Norte 0 -- -- 65
2021-01-13 13:00:00 15.8 29 Nordeste 48 Nordeste 0 -- -- 70
2021-01-13 12:00:00 15.9 25 Nordeste 45 Nordeste 0 -- -- 74
2021-01-13 11:00:00 15.4 27 Nordeste 43 Nordeste 0 -- -- 73
2021-01-13 10:00:00 14.1 21 Nordeste 38 Nordeste 0 -- -- 80
2021-01-13 09:00:00 13.6 18 Nordeste 32 Nordeste 0.2 -- -- 81
2021-01-13 08:00:00 13.3 13 Nordeste 29 Nordeste 0.2 -- -- 84
2021-01-13 07:00:00 13.6 17 Norte 29 Nordeste 0 -- -- 80
2021-01-13 06:00:00 13.3 15 Norte 31 Norte 0 -- -- 85
2021-01-13 05:00:00 13 13 Norte 23 Norte 0 -- -- 85
2021-01-13 04:00:00 12.9 14 Norte 26 Nordeste 0 -- -- 86
2021-01-13 03:00:00 12.8 14 Norte 23 Norte 0 -- -- 87
2021-01-13 02:00:00 13 16 Norte 27 Norte 0.8 -- -- 88
2021-01-13 01:00:00 13.3 15 Norte 24 Norte 0.2 -- -- 84
2021-01-13 00:00:00 13.4 14 Norte 25 Norte 0 -- -- 78
2021-01-12 23:00:00 13.4 14 Norte 29 Norte 0.2 -- -- 80
2021-01-12 22:00:00 13.5 17 Norte 25 Norte 0.2 -- -- 79
2021-01-12 21:00:00 13.4 13 Norte 23 Norte 0 -- -- 76
2021-01-12 20:00:00 12.9 13 Norte 25 Norte 0 -- -- 80
2021-01-12 19:00:00 13.2 20 Norte 31 Norte 0 -- -- 82
2021-01-12 18:00:00 13.6 27 Norte 40 Nordeste 0 -- -- 82
2021-01-12 17:00:00 15.3 19 Norte 35 Norte 0 -- -- 63
2021-01-12 16:00:00 15 20 Norte 37 Norte 0 -- -- 62
2021-01-12 15:00:00 15 15 Norte 30 Norte 0 -- -- 67
2021-01-12 14:00:00 14.1 15 Norte 26 Norte 0.2 -- -- 79
2021-01-12 13:00:00 12.9 19 Nordeste 31 Nordeste 1.4 -- -- 89
2021-01-12 12:00:00 16.5 15 Nordeste 30 Norte 0 -- -- 75
2021-01-12 11:00:00 15.6 18 Norte 28 Norte 0.2 -- -- 72
2021-01-12 10:00:00 13.3 14 Norte 37 Norte 0 -- -- 73
2021-01-12 09:00:00 11.4 9 Norte 30 Norte 0.2 -- -- 89
2021-01-12 08:00:00 11.1 18 Norte 26 Norte 0.4 -- -- 89
2021-01-12 07:00:00 11.8 21 Norte 33 Norte 1.6 -- -- 84
2021-01-12 06:00:00 12.5 17 Norte 26 Norte 0 -- -- 76
2021-01-12 05:00:00 12.2 17 Norte 32 Norte 0 -- -- 79
2021-01-12 04:00:00 12.8 13 Norte 28 Noroeste 0 -- -- 74
2021-01-12 03:00:00 12.6 16 Norte 27 Norte 0 -- -- 77
2021-01-12 02:00:00 12.5 15 Norte 22 Norte 0 -- -- 77
2021-01-12 01:00:00 12.4 11 Norte 21 Norte 0 -- -- 77
2021-01-12 00:00:00 12.8 16 Norte 29 Norte 0 -- -- 76
2021-01-11 23:00:00 12.9 18 Norte 26 Norte 0.4 -- -- 79
2021-01-11 22:00:00 12.1 10 Norte 27 Norte 1.2 -- -- 87
2021-01-11 21:00:00 13.1 12 Norte 29 Norte 0 -- -- 75
2021-01-11 20:00:00 12.9 21 Norte 31 Norte 0 -- -- 79
2021-01-11 19:00:00 12.3 16 Norte 37 Norte 1 -- -- 88
2021-01-11 18:00:00 13 23 Norte 35 Norte 0.2 -- -- 82
2021-01-11 17:00:00 14.8 23 Norte 40 Norte 0 -- -- 67
2021-01-11 16:00:00 14.3 23 Norte 34 Norte 0.2 -- -- 69
2021-01-11 15:00:00 15.6 26 Norte 39 Norte 0 -- -- 71
2021-01-11 14:00:00 15.4 24 Norte 37 Norte 0 -- -- 66
2021-01-11 13:00:00 13.7 20 Norte 37 Norte 0 -- -- 80
2021-01-11 12:00:00 16.2 19 Norte 42 Noroeste 0 -- -- 60
2021-01-11 11:00:00 14.7 20 Norte 35 Norte 0 -- -- 69
2021-01-11 10:00:00 14.7 19 Norte 33 Norte 0 -- -- 62
2021-01-11 09:00:00 13.3 16 Norte 33 Noroeste 0 -- -- 67
2021-01-11 08:00:00 11.9 16 Norte 28 Norte 0 -- -- 71
2021-01-11 07:00:00 11.6 12 Norte 18 Norte 0 -- -- 75
2021-01-11 06:00:00 11.7 11 Norte 22 Norte 0.2 -- -- 77
2021-01-11 05:00:00 12.1 14 Norte 25 Norte 0 -- -- 73
2021-01-11 04:00:00 12.1 17 Norte 31 Norte 0.2 -- -- 79
2021-01-11 03:00:00 12.1 20 Norte 36 Noroeste 0 -- -- 83
2021-01-11 02:00:00 11.7 20 Norte 40 Noroeste 0.4 -- -- 88
2021-01-11 01:00:00 11.8 18 Norte 30 Norte 0.6 -- -- 84
2021-01-11 00:00:00 11.9 20 Norte 43 Norte 0.2 -- -- 84
2021-01-10 23:00:00 12.4 21 Norte 40 Norte 0 -- -- 84
2021-01-10 22:00:00 13.3 14 Norte 31 Noroeste 0 -- -- 70
2021-01-10 21:00:00 14.1 14 Norte 37 Noroeste 0 -- -- 60
2021-01-10 20:00:00 14.3 13 Noroeste 28 Noroeste 0 -- -- 58
2021-01-10 19:00:00 14.4 17 Norte 42 Norte 0 -- -- 62
2021-01-10 18:00:00 15.3 13 Noroeste 32 Noroeste 0 -- -- 59
2021-01-10 17:00:00 16.5 14 Norte 37 Norte 0 -- -- 54
2021-01-10 16:00:00 17.4 18 Noroeste 44 Norte 0 -- -- 47
2021-01-10 15:00:00 18.6 10 Oeste 23 Sudoeste 0 -- -- 49
2021-01-10 14:00:00 17.5 15 Oeste 42 Norte 0 -- -- 61
2021-01-10 13:00:00 17.7 13 Sur 35 Norte 0 -- -- 62
2021-01-10 12:00:00 17.1 20 Norte 38 Norte 0 -- -- 59
2021-01-10 11:00:00 16.7 13 Sur 19 Sudoeste 0 -- -- 64
2021-01-10 10:00:00 14.8 12 Norte 18 Norte 0 -- -- 70
2021-01-10 09:00:00 13.3 7 Norte 22 Noroeste 0 -- -- 72
2021-01-10 08:00:00 11.7 8 Noroeste 33 Noroeste 0.2 -- -- 81
2021-01-10 07:00:00 11.5 11 Noroeste 22 Oeste 0 -- -- 80
2021-01-10 06:00:00 11.7 6 Noroeste 15 Norte 0.2 -- -- 75
2021-01-10 05:00:00 11.8 10 Noroeste 27 Norte 0 -- -- 74
2021-01-10 04:00:00 12.1 13 Norte 27 Noroeste 0 -- -- 68
2021-01-10 03:00:00 11.8 6 Noroeste 19 Norte 0 -- -- 69
2021-01-10 02:00:00 11.6 10 Norte 22 Norte 0 -- -- 78
2021-01-10 01:00:00 11.9 10 Noroeste 22 Norte 0.2 -- -- 75
2021-01-10 00:00:00 11.7 13 Norte 28 Norte 0.2 -- -- 80
2021-01-09 23:00:00 11.9 14 Norte 27 Oeste 0 -- -- 76
2021-01-09 22:00:00 12.3 13 Norte 37 Norte 0 -- -- 68
2021-01-09 21:00:00 12 18 Norte 39 Norte 0 -- -- 76
2021-01-09 20:00:00 12.3 24 Norte 41 Norte 0 -- -- 73
2021-01-09 19:00:00 12.6 20 Norte 37 Norte 0.2 -- -- 67
2021-01-09 18:00:00 13.3 15 Norte 34 Norte 0 -- -- 70
2021-01-09 17:00:00 14.3 14 Norte 37 Nordeste 0 -- -- 67
2021-01-09 16:00:00 14.6 22 Norte 46 Norte 0.6 -- -- 68
2021-01-09 15:00:00 15.7 28 Norte 44 Norte 0 -- -- 60
2021-01-09 14:00:00 15.3 25 Norte 43 Norte 0 -- -- 60
2021-01-09 13:00:00 16.3 23 Norte 40 Norte 0 -- -- 56
2021-01-09 12:00:00 14.9 25 Norte 40 Norte 0 -- -- 64
2021-01-09 11:00:00 15.6 24 Norte 44 Norte 0 -- -- 53
2021-01-09 10:00:00 14.8 26 Norte 43 Norte 0 -- -- 55
2021-01-09 09:00:00 14 5 Norte 33 Norte 0 -- -- 61
2021-01-09 08:00:00 12.8 11 Noroeste 27 Norte 0 -- -- 71
2021-01-09 07:00:00 12.2 11 Noroeste 30 Norte 0 -- -- 64
2021-01-09 06:00:00 12.7 9 Norte 38 Norte 0 -- -- 61
2021-01-09 05:00:00 12.5 15 Norte 30 Norte 0 -- -- 65
2021-01-09 04:00:00 11.8 19 Norte 32 Norte 0 -- -- 73
2021-01-09 03:00:00 12.8 11 Noroeste 34 Nordeste 0 -- -- 70
2021-01-09 02:00:00 13.1 5 Norte 22 Norte 0 -- -- 65
2021-01-09 01:00:00 13.7 13 Norte 36 Noroeste 0 -- -- 60
2021-01-09 00:00:00 13.4 22 Norte 36 Norte 0 -- -- 68
2021-01-08 23:00:00 13.6 26 Norte 41 Norte 0.2 -- -- 70
2021-01-08 22:00:00 14.6 14 Norte 42 Norte 0 -- -- 61
2021-01-08 21:00:00 14.3 18 Norte 30 Noroeste 0 -- -- 65
2021-01-08 20:00:00 14.8 14 Norte 38 Noroeste 0 -- -- 60
2021-01-08 19:00:00 15.1 16 Norte 38 Norte 0 -- -- 65
2021-01-08 18:00:00 15 22 Norte 39 Norte 0 -- -- 69
2021-01-08 17:00:00 15.7 19 Norte 42 Norte 0 -- -- 71
2021-01-08 16:00:00 15.6 9 Oeste 34 Norte 0 -- -- 82
2021-01-08 15:00:00 15 10 Norte 27 Nordeste 3.4 -- -- 83
2021-01-08 14:00:00 16.7 17 Este 32 Sur 0 -- -- 76
2021-01-08 13:00:00 19.3 21 Sur 35 Sur 0 -- -- 66
2021-01-08 12:00:00 20.6 16 Sur 23 Sur 0 -- -- 62
2021-01-08 11:00:00 19.4 8 Sudeste 15 Este 0 -- -- 65
2021-01-08 10:00:00 18.5 8 Nordeste 13 Este 0 -- -- 69
2021-01-08 09:00:00 15.8 3 Noroeste 17 Oeste 0 -- -- 79
2021-01-08 08:00:00 15.4 10 Sudoeste 17 Oeste 0 -- -- 79
2021-01-08 07:00:00 15.9 10 Nordeste 27 Oeste 0 -- -- 72
2021-01-08 06:00:00 16.9 14 Oeste 48 Oeste 0 -- -- 68
2021-01-08 05:00:00 17.7 30 Oeste 59 Oeste 0 -- -- 63
2021-01-08 04:00:00 17.8 29 Oeste 63 Sudoeste 0 -- -- 63
2021-01-08 03:00:00 18 24 Sudoeste 58 Oeste 0 -- -- 68
2021-01-08 02:00:00 17.9 30 Oeste 73 Oeste 0 -- -- 71
2021-01-08 01:00:00 17.9 36 Sudoeste 72 Sudoeste 0.6 -- -- 70
2021-01-08 00:00:00 18.3 39 Sudoeste 69 Sudoeste 0.2 -- -- 73
2021-01-07 23:00:00 18.3 41 Sudoeste 68 Sudoeste 1.6 -- -- 77
2021-01-07 22:00:00 18.2 37 Sudoeste 86 Sudoeste 3 -- -- 77
2021-01-07 21:00:00 18.9 46 Sudoeste 79 Sur 1 -- -- 75
2021-01-07 20:00:00 19 47 Sudoeste 76 Sudoeste 0.2 -- -- 75
2021-01-07 19:00:00 19.8 49 Sudoeste 86 Sudoeste 0 -- -- 70
2021-01-07 18:00:00 19.5 48 Sudoeste 88 Sudoeste 0 -- -- 73
2021-01-07 17:00:00 19.8 42 Oeste 82 Sudoeste 0 -- -- 70
2021-01-07 16:00:00 20.2 36 Sudoeste 75 Sudoeste 0 -- -- 69
2021-01-07 15:00:00 20.8 39 Oeste 75 Oeste 0 -- -- 66
2021-01-07 14:00:00 21.1 32 Oeste 96 Oeste 0 -- -- 69
2021-01-07 13:00:00 19.2 34 Sudoeste 86 Sudoeste 11.6 -- -- 79
2021-01-07 12:00:00 19 48 Sudoeste 102 Sudoeste 2 -- -- 85
2021-01-07 11:00:00 18.6 41 Sudoeste 75 Sudoeste 1.8 -- -- 88
2021-01-07 10:00:00 19 45 Sudoeste 75 Sudoeste 0.2 -- -- 79
2021-01-07 09:00:00 18.3 44 Sudoeste 87 Sur 0.4 -- -- 79
2021-01-07 08:00:00 18.3 47 Sudoeste 87 Sur 1.8 -- -- 80
2021-01-07 07:00:00 18.4 45 Sudoeste 73 Sudoeste 0 -- -- 78
2021-01-07 06:00:00 18.9 36 Sudoeste 71 Sudoeste 0.2 -- -- 73
2021-01-07 05:00:00 18.4 35 Sudoeste 58 Sudoeste 0.4 -- -- 82
2021-01-07 04:00:00 18.9 24 Sudoeste 39 Sur 0 -- -- 76
2021-01-07 03:00:00 19 14 Sudoeste 39 Oeste 0 -- -- 72
2021-01-07 02:00:00 19.2 22 Sudoeste 45 Sudoeste 0 -- -- 70
2021-01-07 01:00:00 18.7 11 Sudoeste 35 Sudoeste 0 -- -- 77
2021-01-07 00:00:00 18.5 9 Sudoeste 33 Sudoeste 0 -- -- 77
2021-01-06 23:00:00 19.2 18 Sudoeste 33 Sudoeste 0 -- -- 69
2021-01-06 22:00:00 19 11 Sudoeste 31 Sudoeste 0 -- -- 69
2021-01-06 21:00:00 19.3 6 Sudoeste 41 Oeste 0 -- -- 66
2021-01-06 20:00:00 19.9 12 Oeste 48 Sudoeste 0 -- -- 64
2021-01-06 19:00:00 20.4 19 Sudoeste 53 Oeste 0 -- -- 67
2021-01-06 18:00:00 20.5 24 Oeste 42 Oeste 0 -- -- 67
2021-01-06 17:00:00 21.2 19 Oeste 74 Sudoeste 0 -- -- 70
2021-01-06 16:00:00 21.2 35 Oeste 75 Oeste 0 -- -- 70
2021-01-06 15:00:00 21.1 33 Oeste 62 Oeste 0 -- -- 75
2021-01-06 14:00:00 20.3 31 Sudoeste 64 Sudoeste 1 -- -- 80
2021-01-06 13:00:00 20.9 39 Sudoeste 76 Sur 0 -- -- 74
2021-01-06 12:00:00 19.8 32 Sudoeste 71 Sudoeste 0.4 -- -- 81
2021-01-06 11:00:00 19.9 36 Sudoeste 72 Sudoeste 0.4 -- -- 80
2021-01-06 10:00:00 19.4 54 Sudoeste 88 Sudoeste 0.8 -- -- 77
2021-01-06 09:00:00 19 57 Sudoeste 102 Sudoeste 1.4 -- -- 80
2021-01-06 08:00:00 18.2 39 Sudoeste 71 Sudoeste 1.8 -- -- 88
2021-01-06 07:00:00 18 37 Sudoeste 61 Sudoeste 0.8 -- -- 84
2021-01-06 06:00:00 18 30 Sudoeste 52 Sudoeste 0 -- -- 81
2021-01-06 05:00:00 19 20 Sudoeste 48 Oeste 0 -- -- 68
2021-01-06 04:00:00 18.7 16 Sudoeste 47 Sudoeste 0 -- -- 67
2021-01-06 03:00:00 17.6 19 Sur 29 Sur 0 -- -- 81
2021-01-06 02:00:00 17.5 18 Sur 28 Sur 0 -- -- 80
2021-01-06 01:00:00 17.6 16 Sur 28 Sur 0 -- -- 82
2021-01-06 00:00:00 17.9 19 Sudoeste 32 Sur 0 -- -- 78
2021-01-05 23:00:00 18.3 14 Sudoeste 28 Sudoeste 0 -- -- 72
2021-01-05 22:00:00 17.8 9 Sudoeste 19 Oeste 0 -- -- 71
2021-01-05 21:00:00 17.1 4 Norte 5 Norte 0 -- -- 83
2021-01-05 20:00:00 18.1 3 Oeste 8 Sur 0 -- -- 83
2021-01-05 19:00:00 18.7 3 Nordeste 9 Nordeste 0 -- -- 69
2021-01-05 18:00:00 20.1 8 Nordeste 18 Este 0 -- -- 65
2021-01-05 17:00:00 22.1 13 Nordeste 21 Este 0 -- -- 55
2021-01-05 16:00:00 22.6 11 Nordeste 22 Este 0 -- -- 57
2021-01-05 15:00:00 24.8 13 Nordeste 22 Nordeste 0 -- -- 49
2021-01-05 14:00:00 24 9 Nordeste 18 Nordeste 0 -- -- 51
2021-01-05 13:00:00 23.1 12 Este 21 Este 0 -- -- 51
2021-01-05 12:00:00 22.6 10 Nordeste 18 Este 0 -- -- 54
2021-01-05 11:00:00 22.2 7 Este 14 Este 0 -- -- 55
2021-01-05 10:00:00 20.7 5 Este 10 Norte 0 -- -- 59
2021-01-05 09:00:00 17.9 6 Norte 9 Noroeste 0 -- -- 67
2021-01-05 08:00:00 15.3 7 Noroeste 9 Noroeste 0 -- -- 70
2021-01-05 07:00:00 15.6 5 Norte 12 Norte 0 -- -- 65
2021-01-05 06:00:00 15.7 7 Norte 10 Nordeste 0 -- -- 69
2021-01-05 05:00:00 15.5 6 Noroeste 15 Noroeste 0 -- -- 72
2021-01-05 04:00:00 15.9 8 Noroeste 15 Oeste 0 -- -- 78
2021-01-05 03:00:00 15.7 5 Sudoeste 10 Noroeste 0 -- -- 87
2021-01-05 02:00:00 16.2 11 Oeste 23 Sur 0 -- -- 92
2021-01-05 01:00:00 16.3 13 Sur 25 Sur 0 -- -- 92
2021-01-05 00:00:00 16.6 18 Sur 44 Sur 0 -- -- 88
2021-01-04 23:00:00 15.8 18 Sudoeste 30 Sudoeste 0 -- -- 88
2021-01-04 22:00:00 15.6 14 Sur 22 Sur 0 -- -- 87
2021-01-04 21:00:00 16.1 6 Sur 16 Sur 0 -- -- 82
2021-01-04 20:00:00 16.4 3 Sudeste 20 Sudeste 0 -- -- 77
2021-01-04 19:00:00 16.1 6 Sur 24 Sur 0 -- -- 80
2021-01-04 18:00:00 16.2 19 Sur 38 Sur 0 -- -- 82
2021-01-04 17:00:00 16.3 28 Sur 48 Sur 0 -- -- 81
2021-01-04 16:00:00 16.4 33 Sur 50 Sur 0 -- -- 80
2021-01-04 15:00:00 16.8 27 Sur 43 Sur 0 -- -- 78
2021-01-04 14:00:00 17.2 26 Sur 42 Sur 0 -- -- 76
2021-01-04 13:00:00 16.8 22 Sur 36 Sur 0 -- -- 77
2021-01-04 12:00:00 16.3 26 Sur 39 Sur 0 -- -- 79
2021-01-04 11:00:00 16.1 30 Sur 40 Sur 0 -- -- 80
2021-01-04 10:00:00 15.5 21 Sur 28 Sur 0 -- -- 82
2021-01-04 09:00:00 15.3 19 Sudoeste 29 Sudoeste 0 -- -- 81
2021-01-04 08:00:00 15.1 21 Sudoeste 31 Sudoeste 0 -- -- 80
2021-01-04 07:00:00 15 14 Sudoeste 24 Sudoeste 0 -- -- 79
2021-01-04 06:00:00 14.9 13 Sudoeste 20 Sudoeste 0 -- -- 79
2021-01-04 05:00:00 14.7 12 Sudoeste 19 Sudoeste 0 -- -- 79
2021-01-04 04:00:00 14.7 8 Sudoeste 12 Sudoeste 0 -- -- 78
2021-01-04 03:00:00 14.5 8 Oeste 12 Sudoeste 0 -- -- 77
2021-01-04 02:00:00 14.7 7 Sudoeste 15 Sudoeste 0 -- -- 75
2021-01-04 01:00:00 14.2 9 Oeste 12 Oeste 0 -- -- 75
2021-01-04 00:00:00 14 4 Sudoeste 9 Oeste 0 -- -- 75
2021-01-03 23:00:00 14.1 6 Oeste 9 Oeste 0 -- -- 74
2021-01-03 22:00:00 14.5 3 Noroeste 4 Noroeste 0 -- -- 73
2021-01-03 21:00:00 14.2 3 Norte 4 Norte 0 -- -- 72
2021-01-03 20:00:00 15.2 2 Oeste 6 Este 0 -- -- 69
2021-01-03 19:00:00 15.3 4 Este 8 Este 0 -- -- 68
2021-01-03 18:00:00 15.6 5 Nordeste 14 Nordeste 0 -- -- 67
2021-01-03 17:00:00 16.1 7 Nordeste 14 Nordeste 0 -- -- 68
2021-01-03 16:00:00 16.3 7 Nordeste 17 Nordeste 0 -- -- 67
2021-01-03 15:00:00 16.5 9 Nordeste 18 Nordeste 0 -- -- 68
2021-01-03 14:00:00 16.2 10 Nordeste 19 Nordeste 0 -- -- 71
2021-01-03 13:00:00 16.4 9 Este 16 Nordeste 0 -- -- 68
2021-01-03 12:00:00 16.5 8 Nordeste 15 Nordeste 0 -- -- 67
2021-01-03 11:00:00 16.4 4 Este 11 Nordeste 0 -- -- 68
2021-01-03 10:00:00 16 4 Nordeste 10 Norte 0 -- -- 70
2021-01-03 09:00:00 14.7 6 Nordeste 15 Norte 0 -- -- 72
2021-01-03 08:00:00 14.2 5 Norte 12 Norte 0 -- -- 68
2021-01-03 07:00:00 13.7 8 Norte 11 Norte 0 -- -- 72
2021-01-03 06:00:00 13.9 8 Norte 13 Norte 0 -- -- 76
2021-01-03 05:00:00 14.5 9 Norte 14 Norte 0 -- -- 74
2021-01-03 04:00:00 14.7 8 Norte 14 Norte 0 -- -- 72
2021-01-03 03:00:00 14.8 10 Norte 16 Norte 0 -- -- 71
2021-01-03 02:00:00 14.8 10 Norte 20 Norte 0 -- -- 73
2021-01-03 01:00:00 14.9 13 Norte 23 Norte 0 -- -- 72
2021-01-03 00:00:00 14.8 14 Norte 19 Norte 0 -- -- 74
2021-01-02 23:00:00 14.4 12 Norte 27 Norte 0 -- -- 75
2021-01-02 22:00:00 14.7 16 Norte 22 Norte 0 -- -- 68
2021-01-02 21:00:00 14.9 15 Norte 24 Norte 0 -- -- 69
2021-01-02 20:00:00 15.1 9 Norte 20 Norte 0 -- -- 72
2021-01-02 19:00:00 15 14 Norte 32 Norte 0 -- -- 73
2021-01-02 18:00:00 15.3 20 Norte 31 Norte 0 -- -- 74
2021-01-02 17:00:00 16.6 19 Nordeste 31 Nordeste 0 -- -- 70
2021-01-02 16:00:00 17.3 17 Norte 37 Nordeste 0 -- -- 56
2021-01-02 15:00:00 17.5 24 Norte 36 Norte 0 -- -- 56
2021-01-02 14:00:00 17.2 21 Nordeste 36 Nordeste 0 -- -- 61
2021-01-02 13:00:00 17.8 23 Norte 39 Nordeste 0 -- -- 55